createdAt,value
2018-11-04T00:02:25.760Z,41.58
2018-11-04T00:04:55.540Z,41.24
2018-11-04T00:07:26.196Z,41.45
2018-11-04T00:09:55.911Z,42.11
2018-11-04T00:12:26.030Z,41.95
2018-11-04T00:14:56.140Z,42.12
2018-11-04T00:17:27.656Z,41.75
2018-11-04T00:19:57.512Z,42.19
2018-11-04T00:22:27.042Z,41.58
2018-11-04T00:24:56.460Z,41.61
2018-11-04T00:27:25.864Z,42.04
2018-11-04T00:29:55.840Z,42.16
2018-11-04T00:32:25.414Z,41.47
2018-11-04T00:34:55.595Z,42.15
2018-11-04T00:37:25.361Z,41.91
2018-11-04T00:39:55.656Z,42.22
2018-11-04T00:42:25.061Z,42.42
2018-11-04T00:44:54.847Z,42.49
2018-11-04T00:47:24.271Z,42.27
2018-11-04T00:49:53.723Z,41.90
2018-11-04T00:52:25.355Z,42.08
2018-11-04T00:54:55.421Z,41.84
2018-11-04T00:57:25.037Z,42.64
2018-11-04T00:59:54.562Z,41.63
2018-11-04T01:02:24.088Z,42.64
2018-11-04T01:04:53.554Z,42.91
2018-11-04T01:07:26.202Z,42.57
2018-11-04T01:09:57.559Z,42.67
2018-11-04T01:12:27.292Z,42.69
2018-11-04T01:14:57.405Z,42.28
2018-11-04T01:17:26.925Z,42.37
2018-11-04T01:19:58.184Z,42.70
2018-11-04T01:22:33.675Z,42.51
2018-11-04T01:25:05.756Z,41.88
2018-11-04T01:27:35.431Z,42.04
2018-11-04T01:30:07.769Z,42.01
2018-11-04T01:32:37.773Z,42.76
2018-11-04T01:35:07.561Z,42.71
2018-11-04T01:37:37.216Z,41.92
2018-11-04T01:40:10.248Z,42.55
2018-11-04T01:42:41.703Z,42.96
2018-11-04T01:45:14.044Z,42.23
2018-11-04T01:47:44.777Z,42.56
2018-11-04T01:50:15.190Z,42.42
2018-11-04T01:52:45.375Z,42.59
2018-11-04T01:55:15.120Z,42.38
2018-11-04T01:57:45.296Z,42.28
2018-11-04T02:00:17.709Z,42.63
2018-11-04T02:02:48.595Z,43.16
2018-11-04T02:05:18.266Z,42.62
2018-11-04T02:07:50.408Z,43.20
2018-11-04T02:10:25.720Z,43.00
2018-11-04T02:12:56.490Z,43.11
2018-11-04T02:15:27.394Z,43.55
2018-11-04T02:17:56.768Z,43.57
2018-11-04T02:20:29.836Z,43.77
2018-11-04T02:23:00.624Z,43.87
2018-11-04T02:25:30.840Z,43.59
2018-11-04T02:28:02.037Z,43.91
2018-11-04T02:30:32.828Z,43.72
2018-11-04T02:33:02.224Z,43.44
2018-11-04T02:35:32.554Z,43.30
2018-11-04T02:38:02.785Z,43.49
2018-11-04T02:40:33.624Z,43.02
2018-11-04T02:43:03.715Z,42.90
2018-11-04T02:45:33.350Z,43.85
2018-11-04T02:48:02.788Z,43.62
2018-11-04T02:50:32.951Z,43.23
2018-11-04T02:53:02.430Z,43.62
2018-11-04T02:55:31.897Z,43.75
2018-11-04T02:58:02.739Z,43.65
2018-11-04T03:00:32.864Z,43.36
2018-11-04T03:03:03.109Z,43.71
2018-11-04T03:05:32.552Z,43.68
2018-11-04T03:08:03.851Z,43.72
2018-11-04T03:10:33.269Z,43.97
2018-11-04T03:13:02.981Z,43.29
2018-11-04T03:15:32.645Z,43.31
2018-11-04T03:18:02.104Z,43.43
2018-11-04T03:20:31.845Z,43.17
2018-11-04T03:23:01.226Z,43.76
2018-11-04T03:25:30.680Z,43.50
2018-11-04T03:28:00.107Z,43.47
2018-11-04T03:30:30.272Z,43.65
2018-11-04T03:32:59.677Z,43.66
2018-11-04T03:35:29.388Z,43.68
2018-11-04T03:37:58.788Z,43.81
2018-11-04T03:40:28.208Z,43.51
2018-11-04T03:42:57.693Z,44.03
2018-11-04T03:45:27.163Z,44.29
2018-11-04T03:47:56.611Z,44.36
2018-11-04T03:50:27.181Z,43.92
2018-11-04T03:53:00.698Z,43.55
2018-11-04T03:55:30.128Z,43.52
2018-11-04T03:58:00.064Z,44.43
2018-11-04T04:00:29.504Z,44.39
2018-11-04T04:02:58.974Z,44.61
2018-11-04T04:05:30.384Z,43.91
2018-11-04T04:07:59.780Z,44.26
2018-11-04T04:10:30.541Z,44.10
2018-11-04T04:13:00.765Z,44.03
2018-11-04T04:15:31.066Z,44.27
2018-11-04T04:18:00.506Z,43.91
2018-11-04T04:20:31.606Z,44.13
2018-11-04T04:23:01.056Z,44.60
2018-11-04T04:25:31.784Z,44.89
2018-11-04T04:28:03.900Z,44.34
2018-11-04T04:30:33.388Z,44.87
2018-11-04T04:33:03.598Z,44.92
2018-11-04T04:35:34.733Z,44.45
2018-11-04T04:38:04.887Z,44.67
2018-11-04T04:40:34.676Z,44.69
2018-11-04T04:43:07.624Z,44.91
2018-11-04T04:45:37.880Z,44.54
2018-11-04T04:48:07.373Z,44.56
2018-11-04T04:50:37.289Z,45.12
2018-11-04T04:53:07.628Z,44.86
2018-11-04T04:55:42.713Z,44.39
2018-11-04T04:58:13.068Z,44.47
2018-11-04T05:00:44.627Z,45.49
2018-11-04T05:03:14.056Z,45.11
2018-11-04T05:05:44.297Z,45.01
2018-11-04T05:08:14.520Z,45.23
2018-11-04T05:10:45.747Z,44.77
2018-11-04T05:13:15.228Z,44.99
2018-11-04T05:15:53.904Z,44.18
2018-11-04T05:18:24.052Z,44.65
2018-11-04T05:20:53.526Z,44.60
2018-11-04T05:23:23.303Z,44.38
2018-11-04T05:25:52.689Z,44.79
2018-11-04T05:28:22.909Z,45.75
2018-11-04T05:30:52.892Z,45.27
2018-11-04T05:33:22.688Z,45.03
2018-11-04T05:35:52.299Z,45.29
2018-11-04T05:38:21.771Z,45.09
2018-11-04T05:40:52.586Z,45.68
2018-11-04T05:43:22.971Z,45.32
2018-11-04T05:45:52.439Z,45.89
2018-11-04T05:48:21.982Z,45.54
2018-11-04T05:50:51.372Z,45.69
2018-11-04T05:53:21.300Z,45.82
2018-11-04T05:55:52.474Z,45.85
2018-11-04T05:58:22.768Z,45.68
2018-11-04T06:00:52.451Z,45.42
2018-11-04T06:05:55.504Z,45.91
2018-11-04T06:08:26.483Z,46.24
2018-11-04T06:10:59.137Z,45.66
2018-11-04T06:13:30.599Z,45.64
2018-11-04T06:16:00.791Z,45.75
2018-11-04T06:18:30.288Z,45.32
2018-11-04T06:21:01.351Z,45.99
2018-11-04T06:23:31.956Z,45.89
2018-11-04T06:26:01.337Z,45.96
2018-11-04T06:28:31.528Z,45.69
2018-11-04T06:31:01.005Z,45.82
2018-11-04T06:33:30.430Z,46.13
2018-11-04T06:35:59.832Z,46.40
2018-11-04T06:38:29.289Z,46.31
2018-11-04T06:41:00.645Z,47.16
2018-11-04T06:43:30.228Z,46.27
2018-11-04T06:45:59.644Z,46.07
2018-11-04T06:48:29.209Z,46.46
2018-11-04T06:50:58.665Z,46.66
2018-11-04T06:53:28.870Z,46.43
2018-11-04T06:55:58.543Z,46.17
2018-11-04T06:58:28.763Z,46.61
2018-11-04T07:00:58.167Z,47.01
2018-11-04T07:03:27.552Z,46.59
2018-11-04T07:06:00.916Z,46.43
2018-11-04T07:08:31.404Z,45.97
2018-11-04T07:11:00.922Z,46.14
2018-11-04T07:13:30.922Z,45.78
2018-11-04T07:16:00.353Z,45.95
2018-11-04T07:18:30.592Z,46.36
2018-11-04T07:21:00.826Z,46.64
2018-11-04T07:23:30.256Z,46.18
2018-11-04T07:26:01.288Z,45.82
2018-11-04T07:28:35.220Z,46.50
2018-11-04T07:31:05.545Z,45.96
2018-11-04T07:33:47.289Z,46.18
2018-11-04T07:36:22.923Z,46.07
2018-11-04T07:38:53.110Z,46.07
2018-11-04T07:41:26.248Z,46.41
2018-11-04T07:43:56.517Z,45.98
2018-11-04T07:46:25.988Z,45.92
2018-11-04T07:48:57.076Z,46.04
2018-11-04T07:51:27.422Z,46.41
2018-11-04T07:53:57.012Z,46.29
2018-11-04T07:56:27.133Z,45.66
2018-11-04T07:58:57.912Z,46.00
2018-11-04T08:01:28.104Z,46.45
2018-11-04T08:03:58.327Z,46.15
2018-11-04T08:06:30.394Z,45.67
2018-11-04T08:09:01.442Z,45.52
2018-11-04T08:11:31.656Z,45.61
2018-11-04T08:14:02.644Z,45.82
2018-11-04T08:16:33.374Z,45.64
2018-11-04T08:19:03.284Z,45.64
2018-11-04T08:21:33.449Z,45.36
2018-11-04T08:24:03.685Z,46.24
2018-11-04T08:26:41.420Z,45.75
2018-11-04T08:29:12.103Z,45.54
2018-11-04T08:31:42.268Z,45.61
2018-11-04T08:34:12.474Z,45.40
2018-11-04T08:36:42.277Z,45.61
2018-11-04T08:39:13.366Z,46.02
2018-11-04T08:41:43.845Z,45.50
2018-11-04T08:44:13.839Z,45.48
2018-11-04T08:46:44.312Z,45.55
2018-11-04T08:49:15.673Z,46.17
2018-11-04T08:51:45.884Z,45.42
2018-11-04T08:54:17.156Z,45.81
2018-11-04T08:56:50.405Z,45.68
2018-11-04T08:59:23.266Z,45.16
2018-11-04T09:01:53.279Z,45.32
2018-11-04T09:04:25.381Z,45.39
2018-11-04T09:07:00.836Z,45.84
2018-11-04T09:09:35.830Z,45.46
2018-11-04T09:12:07.559Z,45.69
2018-11-04T09:14:39.135Z,45.37
2018-11-04T09:17:12.029Z,45.23
2018-11-04T09:19:45.217Z,45.79
2018-11-04T09:22:17.999Z,45.01
2018-11-04T09:27:22.437Z,45.59
2018-11-04T09:29:54.183Z,45.08
2018-11-04T09:32:24.221Z,44.71
2018-11-04T09:34:53.870Z,45.09
2018-11-04T09:37:24.728Z,44.66
2018-11-04T09:42:32.449Z,43.98
2018-11-04T09:45:06.356Z,44.47
2018-11-04T09:47:41.161Z,44.80
2018-11-04T09:50:12.298Z,44.65
2018-11-04T09:52:42.499Z,44.94
2018-11-04T09:55:12.635Z,44.68
2018-11-04T09:57:42.046Z,44.74
2018-11-04T10:02:34.773Z,44.10
2018-11-04T10:05:06.056Z,43.68
2018-11-04T10:07:37.240Z,44.18
2018-11-04T10:10:15.420Z,43.94
2018-11-04T10:12:49.565Z,44.08
2018-11-04T10:15:20.342Z,44.00
2018-11-04T10:17:52.660Z,43.59
2018-11-04T10:20:24.313Z,43.89
2018-11-04T10:22:54.600Z,43.30
2018-11-04T10:25:24.903Z,43.64
2018-11-04T10:27:56.310Z,43.39
2018-11-04T10:30:26.565Z,42.94
2018-11-04T10:32:58.099Z,43.18
2018-11-04T10:35:30.444Z,42.74
2018-11-04T10:38:00.470Z,43.42
2018-11-04T10:40:30.672Z,43.43
2018-11-04T10:43:01.756Z,42.96
2018-11-04T10:45:32.627Z,43.77
2018-11-04T10:48:03.234Z,43.21
2018-11-04T10:50:33.256Z,43.44
2018-11-04T10:53:07.725Z,43.11
2018-11-04T10:55:47.207Z,43.01
2018-11-04T10:58:18.520Z,42.86
2018-11-04T11:00:55.413Z,42.71
2018-11-04T11:03:24.862Z,43.30
2018-11-04T11:05:55.959Z,42.58
2018-11-04T11:08:25.603Z,42.74
2018-11-04T11:10:58.757Z,43.04
2018-11-04T11:13:29.494Z,42.72
2018-11-04T11:15:59.973Z,43.21
2018-11-04T11:18:29.872Z,42.81
2018-11-04T11:21:00.874Z,43.48
2018-11-04T11:23:31.308Z,43.17
2018-11-04T11:26:02.672Z,42.46
2018-11-04T11:28:34.921Z,42.79
2018-11-04T11:31:06.154Z,42.54
2018-11-04T11:33:36.314Z,42.57
2018-11-04T11:36:06.339Z,42.88
2018-11-04T11:38:35.852Z,42.47
2018-11-04T11:41:05.356Z,41.96
2018-11-04T11:43:38.553Z,41.94
2018-11-04T11:46:08.618Z,42.39
2018-11-04T11:48:38.900Z,42.01
2018-11-04T11:51:14.583Z,41.97
2018-11-04T11:53:47.232Z,41.93
2018-11-04T11:56:18.617Z,42.03
2018-11-04T11:58:51.080Z,42.04
2018-11-04T12:01:20.509Z,41.78
2018-11-04T12:03:51.037Z,41.93
2018-11-04T12:06:22.561Z,41.87
2018-11-04T12:08:55.382Z,41.31
2018-11-04T12:11:29.012Z,41.25
2018-11-04T12:13:59.345Z,41.86
2018-11-04T12:16:30.964Z,42.18
2018-11-04T12:19:11.869Z,42.16
2018-11-04T12:21:41.265Z,41.44
2018-11-04T12:24:18.459Z,41.81
2018-11-04T12:26:48.484Z,41.28
2018-11-04T12:29:19.317Z,41.77
2018-11-04T12:31:49.779Z,41.78
2018-11-04T12:34:22.486Z,41.57
2018-11-04T12:36:55.444Z,41.63
2018-11-04T12:39:25.674Z,42.24
2018-11-04T12:42:01.714Z,41.63
2018-11-04T12:44:31.485Z,42.49
2018-11-04T12:47:01.826Z,42.36
2018-11-04T12:49:33.210Z,41.64
2018-11-04T12:52:05.294Z,41.95
2018-11-04T12:54:38.202Z,41.83
2018-11-04T12:57:07.732Z,41.88
2018-11-04T12:59:37.237Z,41.42
2018-11-04T13:02:08.749Z,41.25
2018-11-04T13:04:39.392Z,41.36
2018-11-04T13:07:09.932Z,41.87
2018-11-04T13:09:39.357Z,41.87
2018-11-04T13:12:12.747Z,41.01
2018-11-04T13:14:46.784Z,42.24
2018-11-04T13:17:17.529Z,41.44
2018-11-04T13:19:51.360Z,41.99
2018-11-04T13:22:22.533Z,42.25
2018-11-04T13:24:51.957Z,41.83
2018-11-04T13:27:22.809Z,42.37
2018-11-04T13:30:02.898Z,42.42
2018-11-04T13:32:34.177Z,42.72
2018-11-04T13:35:13.877Z,42.74
2018-11-04T13:37:43.592Z,43.03
2018-11-04T13:40:15.048Z,42.69
2018-11-04T13:42:45.220Z,42.59
2018-11-04T13:45:15.852Z,42.61
2018-11-04T13:47:46.405Z,43.52
2018-11-04T13:50:15.831Z,43.02
2018-11-04T13:52:53.453Z,43.66
2018-11-04T13:55:22.912Z,43.42
2018-11-04T13:57:52.300Z,43.77
2018-11-04T14:00:23.724Z,43.42
2018-11-04T14:02:54.230Z,43.64
2018-11-04T14:05:26.399Z,43.18
2018-11-04T14:07:58.734Z,43.23
2018-11-04T14:10:30.192Z,43.06
2018-11-04T14:12:59.802Z,42.66
2018-11-04T14:15:29.373Z,43.13
2018-11-04T14:17:58.744Z,43.08
2018-11-04T14:20:28.743Z,42.96
2018-11-04T14:23:00.348Z,42.47
2018-11-04T14:25:30.473Z,42.61
2018-11-04T14:28:00.234Z,42.93
2018-11-04T14:30:29.737Z,43.53
2018-11-04T14:32:59.606Z,43.25
2018-11-04T14:35:29.325Z,43.30
2018-11-04T14:37:59.549Z,43.70
2018-11-04T14:40:30.831Z,44.13
2018-11-04T14:43:05.269Z,43.28
2018-11-04T14:45:37.459Z,43.23
2018-11-04T14:48:12.795Z,43.49
2018-11-04T14:50:43.311Z,42.69
2018-11-04T14:53:12.761Z,42.89
2018-11-04T14:55:42.673Z,43.79
2018-11-04T14:58:14.216Z,43.64
2018-11-04T15:00:44.630Z,43.08
2018-11-04T15:03:15.213Z,43.93
2018-11-04T15:05:46.569Z,43.60
2018-11-04T15:08:18.065Z,42.93
2018-11-04T15:10:47.421Z,43.33
2018-11-04T15:13:17.526Z,42.90
2018-11-04T15:15:51.499Z,43.14
2018-11-04T15:18:20.882Z,43.49
2018-11-04T15:20:51.610Z,43.81
2018-11-04T15:23:21.581Z,43.84
2018-11-04T15:25:51.896Z,44.10
2018-11-04T15:28:23.297Z,42.89
2018-11-04T15:30:54.245Z,43.11
2018-11-04T15:33:26.356Z,43.16
2018-11-04T15:35:57.274Z,42.83
2018-11-04T15:38:27.307Z,42.58
2018-11-04T15:40:59.221Z,42.74
2018-11-04T15:43:28.521Z,42.07
2018-11-04T15:45:59.428Z,42.03
2018-11-04T15:48:29.067Z,43.19
2018-11-04T15:51:01.426Z,42.66
2018-11-04T15:53:31.441Z,42.12
2018-11-04T15:56:04.094Z,42.51
2018-11-04T15:58:33.756Z,43.34
2018-11-04T16:01:07.599Z,42.61
2018-11-04T16:03:39.518Z,42.62
2018-11-04T16:06:09.820Z,42.54
2018-11-04T16:08:40.671Z,43.36
2018-11-04T16:11:13.312Z,43.53
2018-11-04T16:13:44.409Z,43.42
2018-11-04T16:16:15.376Z,43.33
2018-11-04T16:18:47.582Z,43.78
2018-11-04T16:21:17.173Z,44.28
2018-11-04T16:23:47.682Z,44.68
2018-11-04T16:26:17.024Z,44.30
2018-11-04T16:28:47.938Z,43.90
2018-11-04T16:31:17.924Z,43.88
2018-11-04T16:33:47.297Z,43.55
2018-11-04T16:36:17.487Z,43.69
2018-11-04T16:38:50.698Z,44.44
2018-11-04T16:41:28.205Z,44.08
2018-11-04T16:43:57.628Z,43.87
2018-11-04T16:46:30.437Z,44.32
2018-11-04T16:49:02.032Z,44.24
2018-11-04T16:51:34.847Z,44.54
2018-11-04T16:54:04.808Z,44.13
2018-11-04T16:56:35.627Z,44.72
2018-11-04T16:59:05.746Z,44.18
2018-11-04T17:01:35.330Z,45.22
2018-11-04T17:04:05.469Z,45.21
2018-11-04T17:06:35.131Z,45.17
2018-11-04T17:09:06.443Z,45.09
2018-11-04T17:11:38.876Z,45.26
2018-11-04T17:14:20.266Z,45.10
2018-11-04T17:16:51.069Z,45.31
2018-11-04T17:19:21.623Z,44.83
2018-11-04T17:21:55.820Z,44.98
2018-11-04T17:24:30.600Z,45.17
2018-11-04T17:27:05.798Z,45.45
2018-11-04T17:29:36.561Z,45.27
2018-11-04T17:32:09.646Z,44.97
2018-11-04T17:34:41.520Z,45.62
2018-11-04T17:37:18.208Z,44.87
2018-11-04T17:39:49.239Z,44.92
2018-11-04T17:42:19.437Z,45.71
2018-11-04T17:44:52.614Z,45.82
2018-11-04T17:47:25.310Z,45.49
2018-11-04T17:49:57.691Z,45.47
2018-11-04T17:52:27.977Z,45.03
2018-11-04T17:54:59.380Z,45.03
2018-11-04T17:57:32.474Z,45.18
2018-11-04T18:00:05.632Z,45.02
2018-11-04T18:02:45.441Z,45.56
2018-11-04T18:05:16.044Z,45.38
2018-11-04T18:07:48.916Z,45.26
2018-11-04T18:10:19.029Z,44.71
2018-11-04T18:12:50.240Z,44.98
2018-11-04T18:15:22.657Z,44.54
2018-11-04T18:17:54.163Z,45.02
2018-11-04T18:20:28.444Z,44.48
2018-11-04T18:23:02.557Z,44.71
2018-11-04T18:25:31.952Z,44.80
2018-11-04T18:28:02.836Z,45.72
2018-11-04T18:30:32.558Z,45.45
2018-11-04T18:33:04.750Z,45.43
2018-11-04T18:35:34.991Z,44.86
2018-11-04T18:38:11.095Z,45.40
2018-11-04T18:40:42.702Z,45.60
2018-11-04T18:43:12.658Z,45.42
2018-11-04T18:45:42.445Z,45.87
2018-11-04T18:48:11.842Z,45.26
2018-11-04T18:50:41.926Z,45.83
2018-11-04T18:53:12.655Z,45.20
2018-11-04T18:55:42.036Z,45.35
2018-11-04T18:58:12.218Z,45.93
2018-11-04T19:00:43.732Z,45.87
2018-11-04T19:03:13.080Z,45.55
2018-11-04T19:05:43.799Z,46.06
2018-11-04T19:08:13.401Z,45.58
2018-11-04T19:10:49.940Z,46.09
2018-11-04T19:13:20.711Z,45.77
2018-11-04T19:15:51.840Z,45.52
2018-11-04T19:18:22.132Z,45.63
2018-11-04T19:20:52.525Z,45.41
2018-11-04T19:23:23.673Z,46.30
2018-11-04T19:25:55.959Z,45.72
2018-11-04T19:28:25.424Z,45.55
2018-11-04T19:30:57.826Z,45.37
2018-11-04T19:33:27.218Z,45.53
2018-11-04T19:35:58.095Z,45.70
2018-11-04T19:38:28.544Z,45.63
2018-11-04T19:40:58.465Z,45.22
2018-11-04T19:43:28.062Z,45.20
2018-11-04T19:45:59.273Z,45.22
2018-11-04T19:48:29.059Z,45.51
2018-11-04T19:51:01.156Z,46.02
2018-11-04T19:53:30.684Z,45.67
2018-11-04T19:56:00.046Z,45.67
2018-11-04T19:58:29.381Z,45.57
2018-11-04T20:01:02.357Z,45.81
2018-11-04T20:03:33.160Z,45.69
2018-11-04T20:06:02.783Z,46.06
2018-11-04T20:08:34.528Z,45.85
2018-11-04T20:11:06.562Z,45.83
2018-11-04T20:13:41.089Z,45.49
2018-11-04T20:16:17.585Z,46.03
2018-11-04T20:18:59.421Z,46.04
2018-11-04T20:21:28.753Z,46.31
2018-11-04T20:23:58.537Z,46.45
2018-11-04T20:26:28.392Z,45.83
2018-11-04T20:28:58.616Z,46.46
2018-11-04T20:31:35.945Z,45.60
2018-11-04T20:34:06.420Z,45.88
2018-11-04T20:36:36.616Z,45.22
2018-11-04T20:39:15.907Z,45.21
2018-11-04T20:41:47.422Z,46.20
2018-11-04T20:44:20.076Z,45.48
2018-11-04T20:46:53.222Z,46.07
2018-11-04T20:49:29.847Z,45.62
2018-11-04T20:52:00.654Z,45.73
2018-11-04T20:54:30.188Z,45.58
2018-11-04T20:57:06.140Z,45.04
2018-11-04T20:59:37.220Z,46.07
2018-11-04T21:02:06.709Z,45.36
2018-11-04T21:04:36.694Z,45.90
2018-11-04T21:07:07.196Z,45.55
2018-11-04T21:09:37.365Z,45.48
2018-11-04T21:12:08.240Z,45.20
2018-11-04T21:14:37.607Z,45.57
2018-11-04T21:17:08.868Z,46.25
2018-11-04T21:19:39.769Z,45.54
2018-11-04T21:22:12.960Z,45.35
2018-11-04T21:24:42.561Z,45.74
2018-11-04T21:27:13.510Z,45.37
2018-11-04T21:29:43.217Z,45.84
2018-11-04T21:32:12.477Z,45.57
2018-11-04T21:34:43.793Z,46.03
2018-11-04T21:37:14.152Z,46.23
2018-11-04T21:39:45.296Z,46.60
2018-11-04T21:42:14.836Z,46.18
2018-11-04T21:44:44.783Z,46.29
2018-11-04T21:47:15.356Z,45.79
2018-11-04T21:49:46.493Z,46.49
2018-11-04T21:52:15.925Z,46.16
2018-11-04T21:54:45.955Z,45.65
2018-11-04T21:57:17.636Z,46.32
2018-11-04T21:59:48.877Z,45.93
2018-11-04T22:02:18.377Z,45.79
2018-11-04T22:04:51.310Z,46.24
2018-11-04T22:07:21.813Z,46.28
2018-11-04T22:09:54.220Z,45.80
2018-11-04T22:12:24.279Z,45.90
2018-11-04T22:14:56.446Z,45.87
2018-11-04T22:17:26.838Z,45.35
2018-11-04T22:19:59.643Z,45.67
2018-11-04T22:22:29.018Z,46.48
2018-11-04T22:24:58.925Z,46.28
2018-11-04T22:27:28.378Z,46.37
2018-11-04T22:29:59.789Z,46.31
2018-11-04T22:32:29.143Z,46.55
2018-11-04T22:34:58.576Z,46.53
2018-11-04T22:37:29.149Z,46.41
2018-11-04T22:40:02.592Z,46.75
2018-11-04T22:42:33.681Z,46.69
2018-11-04T22:45:03.359Z,45.84
2018-11-04T22:47:32.682Z,46.87
2018-11-04T22:50:02.825Z,46.74
2018-11-04T22:52:32.169Z,46.26
2018-11-04T22:55:01.552Z,46.08
2018-11-04T22:57:32.428Z,46.50
2018-11-04T23:00:05.518Z,46.67
2018-11-04T23:02:36.302Z,46.37
2018-11-04T23:05:10.881Z,46.27
2018-11-04T23:07:44.612Z,47.07
2018-11-04T23:10:16.439Z,46.44
2018-11-04T23:12:47.169Z,47.07
2018-11-04T23:15:18.052Z,46.89
2018-11-04T23:17:47.447Z,46.63
2018-11-04T23:20:17.776Z,46.34
2018-11-04T23:22:49.622Z,46.65
2018-11-04T23:25:20.212Z,47.09
2018-11-04T23:27:50.764Z,47.22
2018-11-04T23:32:58.133Z,46.96
2018-11-04T23:35:28.185Z,47.06
2018-11-04T23:37:57.590Z,46.61
2018-11-04T23:40:28.620Z,46.75
2018-11-04T23:42:58.028Z,47.35
2018-11-04T23:45:27.436Z,47.20
2018-11-04T23:48:03.468Z,47.39
2018-11-04T23:50:32.963Z,46.64
2018-11-04T23:53:02.412Z,46.45
2018-11-04T23:55:31.805Z,46.80
2018-11-04T23:58:01.277Z,46.63
